createdAt,value
2022-10-31T00:09:14.181Z,13.76
2022-10-31T00:29:14.136Z,13.89
2022-10-31T00:49:14.102Z,13.91
2022-10-31T01:09:14.121Z,13.75
2022-10-31T01:29:14.043Z,13.86
2022-10-31T03:09:13.892Z,13.02
2022-10-31T03:29:13.937Z,12.86
2022-10-31T03:49:14.002Z,12.78
2022-10-31T04:09:13.776Z,12.34
2022-10-31T05:09:13.696Z,11.4
2022-10-31T05:29:13.674Z,11.18
2022-10-31T05:49:13.661Z,10.99
2022-10-31T06:09:13.613Z,10.94
2022-10-31T06:29:13.595Z,10.94
2022-10-31T06:49:13.580Z,10.94
2022-10-31T07:09:13.521Z,11.23
2022-10-31T07:49:13.466Z,11.91
2022-10-31T08:09:13.431Z,12.35
2022-10-31T08:29:13.402Z,12.91
2022-10-31T09:09:13.331Z,14.13
2022-10-31T09:29:13.301Z,14.83
2022-10-31T09:49:13.320Z,15.53
2022-10-31T10:09:13.247Z,15.94
2022-10-31T10:29:13.194Z,16.27
2022-10-31T10:49:13.162Z,16.98
2022-10-31T11:29:13.092Z,17.7
2022-10-31T12:09:13.065Z,18.16
2022-10-31T15:49:12.624Z,18.42
2022-10-31T16:09:12.590Z,18.04
2022-10-31T16:29:12.567Z,17.61
2022-10-31T16:49:12.532Z,16.88
2022-10-31T17:09:12.490Z,16.11
2022-10-31T17:29:12.462Z,15.36
2022-10-31T17:49:12.435Z,14.75
2022-10-31T18:09:12.401Z,14.51
2022-10-31T18:29:12.362Z,14.48
2022-10-31T18:49:12.311Z,15.39
2022-10-31T19:09:12.287Z,15.28
2022-10-31T19:29:12.285Z,15.09
2022-10-31T19:49:12.246Z,16.1
2022-10-31T20:09:12.192Z,16.44
2022-10-31T20:29:12.191Z,16.32
2022-10-31T20:49:12.110Z,16.17
2022-10-31T21:09:12.093Z,15.73
2022-10-31T21:29:12.110Z,16.06
2022-10-31T21:49:12.037Z,17.16
2022-10-31T22:09:12.002Z,17.64
2022-10-31T22:29:11.979Z,17.8
2022-10-31T22:49:11.999Z,17.88
2022-10-31T23:09:11.902Z,17.98
2022-10-31T23:29:11.869Z,17.94
2022-10-31T23:49:11.813Z,17.98
